Time;durP1;ratioP1;P1;durP2;ratioP2;P2;SDS_P1;SDS_P2;PMS_P1;PMS_P2;Temp;Humidity;BMP_temperature;BMP_pressure;BME280_temperature;BME280_humidity;BME280_pressure;Samples;Min_cycle;Max_cycle;Signal;HPM_P1;HPM_P2
2022/01/26 00:06:27;;;;;;;;;;;;;;;7.74;62.16;101714.59;5023565;27;107738;-49
2022/01/26 00:08:54;;;;;;;;;;;;;;;7.74;61.69;101709.19;5014044;28;101990;-49
2022/01/26 00:11:20;;;;;;;;;;;;;;;7.74;62.10;101706.47;5010616;28;102436;-50
2022/01/26 00:13:47;;;;;;;;;;;;;;;7.73;62.51;101718.38;5015036;28;102478;-48
2022/01/26 00:17:00;;;;;;;;;;;;;;;7.73;61.66;101712.94;5014410;27;103930;-49
2022/01/26 00:19:01;;;;;;;;;;;;;;;7.72;62.50;101703.19;5002475;27;102424;-49
2022/01/26 00:21:32;;;;;;;;;;;;;;;7.73;61.58;101710.25;5009226;28;102484;-49
2022/01/26 00:29:19;;;;;;;;;;;;;;;7.72;61.59;101705.88;5012852;28;102077;-48
2022/01/26 00:40:08;;;;;;;;;;;;;;;7.72;61.84;101705.88;5011123;28;102424;-48
2022/01/26 00:42:38;;;;;;;;;;;;;;;7.72;61.66;101700.47;5012024;28;102234;-50
2022/01/26 00:45:07;;;;;;;;;;;;;;;7.71;61.67;101696.91;5019358;28;102433;-49
2022/01/26 00:47:33;;;;;;;;;;;;;;;7.72;62.12;101700.47;5005955;27;103945;-49
2022/01/26 00:50:04;;;;;;;;;;;;;;;7.70;62.29;101681.72;5015401;27;102226;-49
2022/01/26 00:52:41;;;;;;;;;;;;;;;7.71;62.05;101679.81;5016254;27;102620;-50
2022/01/26 00:55:08;;;;;;;;;;;;;;;7.71;61.27;101677.13;5018199;27;103133;-48
2022/01/26 00:57:34;;;;;;;;;;;;;;;7.70;61.76;101680.88;5032095;27;103744;-49
2022/01/26 01:00:00;;;;;;;;;;;;;;;7.70;61.64;101670.06;5013179;27;102352;-47
2022/01/26 01:02:30;;;;;;;;;;;;;;;7.69;62.02;101673.81;5030870;27;102605;-50
2022/01/26 01:04:58;;;;;;;;;;;;;;;7.69;61.95;101673.81;5018574;27;102182;-48
2022/01/26 01:07:24;;;;;;;;;;;;;;;7.69;61.46;101671.13;5012115;27;103807;-50
2022/01/26 01:09:50;;;;;;;;;;;;;;;7.69;62.04;101668.41;5014822;28;102322;-49
2022/01/26 01:12:16;;;;;;;;;;;;;;;7.68;61.78;101672.16;5022078;27;102041;-46
2022/01/26 01:14:44;;;;;;;;;;;;;;;7.69;61.54;101676.53;5017613;27;102585;-47
2022/01/26 01:17:21;;;;;;;;;;;;;;;7.68;61.34;101672.16;5016323;27;102650;-50
2022/01/26 01:20:09;;;;;;;;;;;;;;;7.69;62.14;101668.41;5015366;28;102557;-47
2022/01/26 01:32:51;;;;;;;;;;;;;;;7.67;62.04;101654.25;5020466;27;102240;-49
2022/01/26 01:35:19;;;;;;;;;;;;;;;7.67;61.31;101654.25;5022863;27;102263;-48
2022/01/26 01:37:46;;;;;;;;;;;;;;;7.66;61.16;101653.44;5024433;27;103909;-49
2022/01/26 01:40:12;;;;;;;;;;;;;;;7.67;61.68;101654.25;5013919;27;104055;-48
2022/01/26 01:42:38;;;;;;;;;;;;;;;7.66;62.10;101653.44;5015704;28;102090;-48
2022/01/26 01:45:05;;;;;;;;;;;;;;;7.66;62.26;101648.00;5012718;27;102315;-48
2022/01/26 01:47:31;;;;;;;;;;;;;;;7.66;61.82;101658.03;5015001;27;104042;-49
2022/01/26 01:49:57;;;;;;;;;;;;;;;7.67;61.77;101651.53;5014101;28;102292;-48
2022/01/26 01:52:26;;;;;;;;;;;;;;;7.66;61.54;101649.91;5015157;27;102455;-49
2022/01/26 01:54:54;;;;;;;;;;;;;;;7.66;61.15;101647.19;5014588;28;102563;-49
2022/01/26 01:57:23;;;;;;;;;;;;;;;7.66;61.74;101649.91;5011045;27;103871;-50
2022/01/26 01:59:50;;;;;;;;;;;;;;;7.66;61.88;101649.91;5007075;27;101983;-47
2022/01/26 02:02:16;;;;;;;;;;;;;;;7.66;62.31;101641.75;5026092;28;102116;-49
2022/01/26 02:04:42;;;;;;;;;;;;;;;7.65;62.12;101640.13;5010741;28;102274;-48
2022/01/26 02:07:10;;;;;;;;;;;;;;;7.65;61.67;101645.53;5015557;27;104831;-49
2022/01/26 02:09:37;;;;;;;;;;;;;;;7.65;61.68;101640.13;5022615;28;102229;-46
2022/01/26 02:12:11;;;;;;;;;;;;;;;7.65;61.54;101634.69;5015128;28;102614;-46
2022/01/26 02:14:42;;;;;;;;;;;;;;;7.65;61.57;101624.69;5027225;27;102814;-49
2022/01/26 02:17:32;;;;;;;;;;;;;;;7.65;61.53;101613.03;5014946;27;104099;-48
2022/01/26 02:53:23;;;;;;;;;;;;;;;7.64;61.96;101612.19;5026005;28;102175;-49
2022/01/26 02:55:41;;;;;;;;;;;;;;;7.64;61.69;101614.06;5011890;27;102198;-50
2022/01/26 03:04:09;;;;;;;;;;;;;;;7.64;61.91;101611.34;4981758;28;102283;-50
2022/01/26 03:06:42;;;;;;;;;;;;;;;7.64;62.00;101601.34;5006545;27;102327;-50
2022/01/26 03:09:13;;;;;;;;;;;;;;;7.65;61.67;101603.00;5010439;27;102359;-48
2022/01/26 03:11:43;;;;;;;;;;;;;;;7.64;61.85;101601.34;5011859;28;103876;-47
2022/01/26 03:14:32;;;;;;;;;;;;;;;7.65;61.88;101596.78;5009877;28;102254;-49
2022/01/26 03:17:01;;;;;;;;;;;;;;;7.65;61.66;101596.78;5025339;28;102388;-50
2022/01/26 03:34:56;;;;;;;;;;;;;;;7.65;61.19;101569.69;5009075;28;102554;-47
2022/01/26 03:37:28;;;;;;;;;;;;;;;7.64;61.56;101568.00;5006760;28;102287;-49
2022/01/26 03:39:54;;;;;;;;;;;;;;;7.65;61.90;101577.81;4997482;28;102710;-47
2022/01/26 03:42:22;;;;;;;;;;;;;;;7.64;61.58;101563.41;4997484;28;103914;-47
2022/01/26 03:44:48;;;;;;;;;;;;;;;7.65;61.16;101564.25;5000577;28;102327;-49
2022/01/26 03:47:14;;;;;;;;;;;;;;;7.64;61.12;101563.41;5014808;28;102237;-49
2022/01/26 03:49:41;;;;;;;;;;;;;;;7.64;61.79;101552.56;5013349;28;102373;-49
2022/01/26 03:52:07;;;;;;;;;;;;;;;7.65;61.89;101554.25;5013057;28;103998;-49
2022/01/26 03:54:33;;;;;;;;;;;;;;;7.64;61.82;101547.16;5012247;28;102743;-49
2022/01/26 03:57:00;;;;;;;;;;;;;;;7.64;61.40;101547.16;5012195;28;103889;-49
2022/01/26 03:59:27;;;;;;;;;;;;;;;7.64;62.02;101552.56;5015458;28;102180;-49
2022/01/26 04:01:53;;;;;;;;;;;;;;;7.64;61.36;101549.88;5011074;28;104003;-47
2022/01/26 04:04:19;;;;;;;;;;;;;;;7.64;61.33;101558.00;5013632;27;102383;-49
2022/01/26 04:06:45;;;;;;;;;;;;;;;7.64;61.86;101555.28;5012415;28;102348;-49
2022/01/26 04:09:13;;;;;;;;;;;;;;;7.65;61.96;101558.84;5010507;28;103437;-49
2022/01/26 04:11:42;;;;;;;;;;;;;;;7.64;61.57;101558.00;5008260;28;103648;-49
2022/01/26 04:14:11;;;;;;;;;;;;;;;7.65;61.87;101558.84;5014253;27;102692;-47
2022/01/26 04:16:39;;;;;;;;;;;;;;;7.65;60.99;101558.84;5013466;28;102595;-49
2022/01/26 04:19:05;;;;;;;;;;;;;;;7.65;61.42;101558.84;5030495;27;102691;-49
2022/01/26 04:24:53;;;;;;;;;;;;;;;7.65;61.83;101564.25;5020253;27;102151;-50
2022/01/26 04:29:37;;;;;;;;;;;;;;;7.64;61.64;101544.44;5011135;28;102409;-49
2022/01/26 04:32:07;;;;;;;;;;;;;;;7.65;61.51;101548.00;5016718;27;108081;-50
2022/01/26 04:34:34;;;;;;;;;;;;;;;7.64;61.57;101546.34;5031912;27;102234;-49
2022/01/26 04:37:22;;;;;;;;;;;;;;;7.64;62.40;101536.31;5019127;27;102223;-47
2022/01/26 04:40:10;;;;;;;;;;;;;;;7.65;61.86;101542.59;5029786;27;102170;-50
2022/01/26 04:45:07;;;;;;;;;;;;;;;7.65;61.94;101527.16;5014700;27;102182;-49
2022/01/26 04:47:35;;;;;;;;;;;;;;;7.65;62.03;101537.16;5021387;27;102270;-49
2022/01/26 04:50:01;;;;;;;;;;;;;;;7.65;61.89;101534.47;5031161;27;104517;-50
2022/01/26 04:52:27;;;;;;;;;;;;;;;7.65;62.09;101542.59;5018910;27;103830;-50
2022/01/26 04:54:53;;;;;;;;;;;;;;;7.65;62.27;101535.28;5027206;27;102145;-48
2022/01/26 04:57:19;;;;;;;;;;;;;;;7.65;61.56;101531.75;5017334;27;102209;-49
2022/01/26 04:59:45;;;;;;;;;;;;;;;7.65;61.95;101538.00;5016842;28;102572;-46
2022/01/26 05:02:11;;;;;;;;;;;;;;;7.65;61.99;101542.59;5003614;28;103239;-47
2022/01/26 05:04:39;;;;;;;;;;;;;;;7.66;61.55;101533.41;5016651;27;102246;-49
2022/01/26 05:07:05;;;;;;;;;;;;;;;7.65;61.84;101526.34;5017644;27;101885;-49
2022/01/26 05:09:31;;;;;;;;;;;;;;;7.65;62.18;101523.63;5017267;27;102254;-47
2022/01/26 05:12:00;;;;;;;;;;;;;;;7.65;62.56;101524.44;5016425;28;104054;-48
2022/01/26 05:14:26;;;;;;;;;;;;;;;7.65;62.09;101519.03;5006712;27;102154;-49
2022/01/26 05:16:52;;;;;;;;;;;;;;;7.66;61.62;101517.13;5015640;28;102183;-45
2022/01/26 05:19:18;;;;;;;;;;;;;;;7.66;61.71;101507.13;5018676;27;102341;-47
2022/01/26 05:21:46;;;;;;;;;;;;;;;7.65;61.68;101505.47;5019653;27;103735;-49
2022/01/26 05:24:12;;;;;;;;;;;;;;;7.65;61.85;101499.25;5026322;27;102291;-51
2022/01/26 05:26:40;;;;;;;;;;;;;;;7.65;62.41;101500.06;5016472;28;102223;-49
2022/01/26 05:29:06;;;;;;;;;;;;;;;7.66;61.24;101490.03;5029015;27;102231;-49
2022/01/26 05:31:32;;;;;;;;;;;;;;;7.66;61.72;101500.88;5009955;28;103845;-50
2022/01/26 05:33:58;;;;;;;;;;;;;;;7.65;62.53;101500.06;5010285;28;102477;-49
2022/01/26 05:36:25;;;;;;;;;;;;;;;7.65;61.53;101504.66;5017980;28;102157;-49
2022/01/26 05:38:53;;;;;;;;;;;;;;;7.66;62.04;101509.00;5032923;27;102122;-49
2022/01/26 05:41:19;;;;;;;;;;;;;;;7.65;61.42;101502.78;5013227;28;103843;-49
2022/01/26 05:43:45;;;;;;;;;;;;;;;7.66;62.57;101490.03;5017475;27;102031;-50
2022/01/26 05:46:17;;;;;;;;;;;;;;;7.66;61.29;101490.03;5015670;27;102137;-50
2022/01/26 05:48:45;;;;;;;;;;;;;;;7.66;61.50;101507.13;5014221;28;102760;-48
2022/01/26 05:51:12;;;;;;;;;;;;;;;7.66;62.13;101506.31;5008747;28;105081;-47
2022/01/26 05:53:38;;;;;;;;;;;;;;;7.66;61.88;101500.88;5012372;28;101967;-46
2022/01/26 05:56:06;;;;;;;;;;;;;;;7.67;62.00;101505.25;5010479;28;102222;-49
2022/01/26 05:58:32;;;;;;;;;;;;;;;7.67;61.72;101497.13;5016094;27;102270;-49
2022/01/26 06:01:00;;;;;;;;;;;;;;;7.66;62.02;101487.34;5012768;27;102673;-51
2022/01/26 06:03:26;;;;;;;;;;;;;;;7.66;61.86;101473.78;5009515;28;102239;-47
2022/01/26 06:05:54;;;;;;;;;;;;;;;7.66;62.00;101479.22;5015701;28;102196;-46
2022/01/26 06:08:20;;;;;;;;;;;;;;;7.67;62.08;101486.28;5014457;28;102252;-48
2022/01/26 06:10:46;;;;;;;;;;;;;;;7.66;62.54;101473.78;5016751;28;103839;-50
2022/01/26 06:13:13;;;;;;;;;;;;;;;7.66;61.73;101473.78;5022967;27;103916;-49
2022/01/26 06:15:39;;;;;;;;;;;;;;;7.66;61.86;101484.63;5014955;27;102529;-48
2022/01/26 06:18:06;;;;;;;;;;;;;;;7.66;62.02;101490.03;5017500;27;102321;-49
2022/01/26 06:20:32;;;;;;;;;;;;;;;7.67;62.01;101488.97;5019375;27;104066;-49
2022/01/26 06:22:58;;;;;;;;;;;;;;;7.66;61.58;101484.63;5013408;28;104332;-48
2022/01/26 06:25:24;;;;;;;;;;;;;;;7.67;62.08;101470.03;5009136;28;102236;-50
2022/01/26 06:27:52;;;;;;;;;;;;;;;7.67;61.80;101475.44;5012406;28;102179;-48
2022/01/26 06:30:20;;;;;;;;;;;;;;;7.65;62.20;101467.56;5013807;27;103719;-48
2022/01/26 06:32:47;;;;;;;;;;;;;;;7.67;62.10;101453.75;5014916;28;102907;-49
2022/01/26 06:35:13;;;;;;;;;;;;;;;7.67;61.72;101460.00;5013793;28;102345;-50
2022/01/26 06:37:39;;;;;;;;;;;;;;;7.67;61.69;101470.03;5014587;27;102829;-48
2022/01/26 06:40:05;;;;;;;;;;;;;;;7.67;61.81;101470.03;5006286;28;104053;-46
2022/01/26 06:42:38;;;;;;;;;;;;;;;7.68;62.06;101463.53;5013415;28;102182;-50
2022/01/26 06:47:52;;;;;;;;;;;;;;;7.67;61.76;101470.84;5013288;27;102540;-50
2022/01/26 06:50:18;;;;;;;;;;;;;;;7.68;62.59;101466.25;5012456;27;104036;-48
2022/01/26 06:52:46;;;;;;;;;;;;;;;7.67;62.31;101467.31;5014040;27;102581;-48
2022/01/26 06:55:12;;;;;;;;;;;;;;;7.68;62.01;101467.09;5013617;28;102140;-50
2022/01/26 06:57:38;;;;;;;;;;;;;;;7.69;61.87;101467.91;5015671;27;102553;-49
2022/01/26 07:00:05;;;;;;;;;;;;;;;7.69;61.83;101465.22;5012371;28;104230;-49
2022/01/26 07:02:33;;;;;;;;;;;;;;;7.69;61.79;101459.78;5012428;28;102582;-48
2022/01/26 07:04:59;;;;;;;;;;;;;;;7.69;62.17;101455.19;5013004;28;102566;-48
2022/01/26 07:07:24;;;;;;;;;;;;;;;7.70;61.17;101458.72;5029224;27;102635;-49
2022/01/26 07:09:51;;;;;;;;;;;;;;;7.69;62.27;101457.91;5014308;27;104106;-49
2022/01/26 07:12:17;;;;;;;;;;;;;;;7.69;62.31;101451.66;5011326;28;102180;-48
2022/01/26 07:23:08;;;;;;;;;;;;;;;7.71;61.95;101449.53;4987688;28;102336;-49
2022/01/26 07:25:34;;;;;;;;;;;;;;;7.71;62.71;101449.53;5005442;28;102405;-48
2022/01/26 07:28:03;;;;;;;;;;;;;;;7.71;62.86;101449.53;5009198;28;102467;-47
2022/01/26 07:30:29;;;;;;;;;;;;;;;7.72;62.82;101448.47;5017408;27;103880;-46
2022/01/26 07:32:55;;;;;;;;;;;;;;;7.73;62.53;101438.47;5007287;28;105402;-48
2022/01/26 07:35:23;;;;;;;;;;;;;;;7.74;62.90;101445.53;5003024;28;102437;-47
2022/01/26 07:37:50;;;;;;;;;;;;;;;7.73;62.63;101442.00;5014249;28;102242;-50
2022/01/26 07:40:16;;;;;;;;;;;;;;;7.74;62.85;101449.06;5004735;28;104091;-47
2022/01/26 07:42:42;;;;;;;;;;;;;;;7.75;62.97;101449.88;5012423;27;102499;-49
2022/01/26 07:45:10;;;;;;;;;;;;;;;7.74;62.42;101443.63;5006423;28;103476;-50
2022/01/26 07:47:37;;;;;;;;;;;;;;;7.75;62.11;101445.28;5003176;28;102668;-46
2022/01/26 07:50:05;;;;;;;;;;;;;;;7.75;62.06;101456.13;5010862;28;103939;-49
2022/01/26 07:52:37;;;;;;;;;;;;;;;7.76;62.00;101451.56;5016453;28;103312;-46
2022/01/26 07:55:04;;;;;;;;;;;;;;;7.77;62.35;101453.19;5011059;27;102082;-49
2022/01/26 07:57:30;;;;;;;;;;;;;;;7.76;62.12;101446.94;5007569;28;102751;-46
2022/01/26 07:59:56;;;;;;;;;;;;;;;7.77;62.65;101453.19;5004342;27;106674;-48
2022/01/26 08:02:23;;;;;;;;;;;;;;;7.77;62.61;101459.44;5014918;27;102471;-49
2022/01/26 08:04:49;;;;;;;;;;;;;;;7.77;62.44;101445.88;5011521;28;102151;-46
2022/01/26 08:07:15;;;;;;;;;;;;;;;7.77;61.65;101450.47;5015587;27;102219;-46
2022/01/26 08:09:44;;;;;;;;;;;;;;;7.77;62.45;101448.59;5009160;28;104047;-50
2022/01/26 08:12:10;;;;;;;;;;;;;;;7.77;62.10;101458.59;5011520;27;102289;-46
2022/01/26 08:14:36;;;;;;;;;;;;;;;7.78;61.98;101460.25;5005994;27;103021;-48
2022/01/26 08:17:03;;;;;;;;;;;;;;;7.79;62.11;101456.47;5007828;27;103546;-49
2022/01/26 08:19:29;;;;;;;;;;;;;;;7.78;62.69;101460.25;5014484;28;104202;-47
2022/01/26 08:21:59;;;;;;;;;;;;;;;7.78;62.92;101449.41;5007509;28;102301;-49
2022/01/26 08:24:25;;;;;;;;;;;;;;;7.78;62.45;101452.13;5007412;28;102228;-48
2022/01/26 08:26:55;;;;;;;;;;;;;;;7.78;62.87;101452.94;5019799;27;102368;-46
2022/01/26 08:29:31;;;;;;;;;;;;;;;7.78;62.14;101449.41;5008928;27;103996;-49
2022/01/26 08:31:57;;;;;;;;;;;;;;;7.78;62.23;101444.81;5008007;27;104664;-49
2022/01/26 08:34:23;;;;;;;;;;;;;;;7.78;61.82;101447.53;5009374;28;102855;-49
2022/01/26 08:36:50;;;;;;;;;;;;;;;7.79;62.79;101442.94;5018803;28;102548;-49
2022/01/26 08:39:16;;;;;;;;;;;;;;;7.78;62.26;101439.41;5006556;28;103841;-49
2022/01/26 08:41:43;;;;;;;;;;;;;;;7.79;61.98;101445.63;5008834;28;102103;-49
2022/01/26 08:44:10;;;;;;;;;;;;;;;7.79;62.65;101440.22;5009803;28;102416;-49
2022/01/26 08:46:36;;;;;;;;;;;;;;;7.78;62.73;101444.81;5011758;28;104318;-47
2022/01/26 08:49:02;;;;;;;;;;;;;;;7.79;62.99;101440.22;5010683;27;103898;-49
2022/01/26 08:51:28;;;;;;;;;;;;;;;7.79;62.83;101440.22;5013912;28;102502;-50
2022/01/26 08:53:54;;;;;;;;;;;;;;;7.78;62.17;101442.09;5009204;28;104481;-49
2022/01/26 08:56:20;;;;;;;;;;;;;;;7.79;61.77;101438.34;5004343;27;102407;-47
2022/01/26 08:58:46;;;;;;;;;;;;;;;7.79;61.96;101441.06;5007133;27;103884;-48
2022/01/26 09:01:14;;;;;;;;;;;;;;;7.79;63.07;101435.66;5008788;27;102500;-57
2022/01/26 09:03:41;;;;;;;;;;;;;;;7.80;62.66;101431.88;5006974;27;102665;-46
2022/01/26 09:06:07;;;;;;;;;;;;;;;7.69;60.07;101429.97;5010965;28;102338;-48
2022/01/26 09:08:33;;;;;;;;;;;;;;;7.66;62.49;101428.56;5006614;27;103885;-50
2022/01/26 09:11:01;;;;;;;;;;;;;;;7.68;62.44;101434.59;5007922;28;103049;-46
2022/01/26 09:13:33;;;;;;;;;;;;;;;7.69;61.58;101432.69;5004145;27;102770;-48
2022/01/26 09:16:00;;;;;;;;;;;;;;;7.68;62.79;101428.31;5008979;28;103236;-49
2022/01/26 09:18:49;;;;;;;;;;;;;;;7.68;61.89;101433.72;5004751;28;103940;-48
2022/01/26 09:21:15;;;;;;;;;;;;;;;7.67;62.59;101423.97;5003478;28;102444;-47
2022/01/26 09:23:42;;;;;;;;;;;;;;;7.66;62.24;101425.84;5002280;28;102594;-47
2022/01/26 09:26:08;;;;;;;;;;;;;;;7.67;62.19;101426.66;5014410;27;103189;-48
2022/01/26 09:28:34;;;;;;;;;;;;;;;7.66;61.75;101419.63;5013714;27;104007;-50
2022/01/26 09:31:00;;;;;;;;;;;;;;;7.65;62.14;101416.09;5008802;28;102293;-50
2022/01/26 09:33:26;;;;;;;;;;;;;;;7.65;61.80;101418.78;5011841;28;102274;-50
2022/01/26 09:35:53;;;;;;;;;;;;;;;7.66;61.63;101408.78;5009698;28;102701;-50
2022/01/26 09:38:19;;;;;;;;;;;;;;;7.66;61.40;101414.19;5011704;27;103687;-49
2022/01/26 09:40:46;;;;;;;;;;;;;;;7.66;62.30;101409.59;5005030;28;102939;-49
2022/01/26 09:43:13;;;;;;;;;;;;;;;7.66;62.66;101406.06;5012143;28;102252;-47
2022/01/26 09:45:39;;;;;;;;;;;;;;;7.67;61.85;101410.41;5015076;28;102274;-48
2022/01/26 09:48:06;;;;;;;;;;;;;;;7.66;62.36;101397.94;5013853;27;103992;-48
2022/01/26 09:50:33;;;;;;;;;;;;;;;7.65;62.24;101399.81;5012661;28;102666;-46
2022/01/26 09:53:01;;;;;;;;;;;;;;;7.66;62.86;101403.34;5012316;28;102213;-48
2022/01/26 09:55:27;;;;;;;;;;;;;;;7.65;62.22;101389.00;5009191;27;102569;-48
2022/01/26 09:57:58;;;;;;;;;;;;;;;7.67;62.00;101391.44;5010845;28;104093;-49
2022/01/26 10:00:24;;;;;;;;;;;;;;;7.66;61.93;101393.34;5003991;28;102088;-48
2022/01/26 10:02:55;;;;;;;;;;;;;;;7.67;62.01;101396.88;5010300;28;102499;-49
2022/01/26 10:05:22;;;;;;;;;;;;;;;7.67;62.29;101392.28;5007073;28;103065;-49
2022/01/26 10:08:22;;;;;;;;;;;;;;;7.67;61.95;101388.75;5010345;28;104524;-50
2022/01/26 10:18:49;;;;;;;;;;;;;;;7.69;62.23;101375.81;5004398;27;103904;-49
2022/01/26 10:21:15;;;;;;;;;;;;;;;7.70;62.18;101374.72;5011584;28;102432;-49
2022/01/26 10:23:42;;;;;;;;;;;;;;;7.70;62.70;101372.03;5015171;27;102316;-48
2022/01/26 10:26:12;;;;;;;;;;;;;;;7.69;62.41;101376.63;5012654;27;102250;-49
2022/01/26 10:28:42;;;;;;;;;;;;;;;7.69;62.25;101371.19;5010244;27;103656;-49
2022/01/26 10:31:13;;;;;;;;;;;;;;;7.72;62.84;101369.91;5004686;27;102581;-49
2022/01/26 10:33:40;;;;;;;;;;;;;;;7.71;61.76;101371.78;5015719;27;102106;-48
2022/01/26 10:36:06;;;;;;;;;;;;;;;7.72;62.28;101364.50;5008914;27;102257;-46
2022/01/26 10:38:32;;;;;;;;;;;;;;;7.72;62.13;101353.66;5012554;27;103792;-49
2022/01/26 10:41:00;;;;;;;;;;;;;;;7.72;62.26;101361.78;5000360;28;103013;-49
2022/01/26 10:43:30;;;;;;;;;;;;;;;7.73;61.98;101366.13;5004422;28;102742;-49
2022/01/26 10:46:04;;;;;;;;;;;;;;;7.73;62.55;101355.28;5006790;27;102728;-51
2022/01/26 10:49:04;;;;;;;;;;;;;;;7.73;62.36;101355.28;5009389;27;103873;-47
2022/01/26 10:51:42;;;;;;;;;;;;;;;7.74;62.35;101351.53;5015322;28;102531;-47
2022/01/26 10:54:18;;;;;;;;;;;;;;;7.74;63.16;101356.94;5017165;27;103605;-47
2022/01/26 10:56:44;;;;;;;;;;;;;;;7.76;62.59;101351.31;5018329;27;102435;-48
2022/01/26 10:59:12;;;;;;;;;;;;;;;7.76;62.30;101344.00;5015460;27;103869;-49
2022/01/26 11:01:38;;;;;;;;;;;;;;;7.75;62.35;101347.75;5011701;27;102797;-49
2022/01/26 11:04:04;;;;;;;;;;;;;;;7.76;62.35;101346.69;5012972;27;102252;-46
2022/01/26 11:06:30;;;;;;;;;;;;;;;7.78;62.88;101351.88;5003823;28;102269;-49
2022/01/26 11:08:58;;;;;;;;;;;;;;;7.77;62.70;101342.09;5005958;28;104216;-49
2022/01/26 11:11:27;;;;;;;;;;;;;;;7.77;62.50;101345.63;5014358;28;102241;-48
2022/01/26 11:13:54;;;;;;;;;;;;;;;7.76;62.61;101333.16;5019375;28;102549;-49
2022/01/26 11:16:21;;;;;;;;;;;;;;;7.78;62.46;101333.72;5007696;28;103065;-47
2022/01/26 11:18:49;;;;;;;;;;;;;;;7.78;62.94;101341.84;5006546;28;104157;-50
2022/01/26 11:21:25;;;;;;;;;;;;;;;7.78;62.61;101341.03;5010433;27;102393;-49
2022/01/26 11:24:03;;;;;;;;;;;;;;;7.79;62.37;101332.69;5012628;27;102186;-48
2022/01/26 11:26:29;;;;;;;;;;;;;;;7.80;63.04;101328.91;5013605;28;102280;-49
2022/01/26 11:28:55;;;;;;;;;;;;;;;7.80;62.94;101331.59;5008183;28;104018;-48
2022/01/26 11:31:24;;;;;;;;;;;;;;;7.81;62.83;101333.25;5013270;27;102488;-49
2022/01/26 11:33:50;;;;;;;;;;;;;;;7.82;62.38;101336.78;5008010;28;102698;-47
2022/01/26 11:36:18;;;;;;;;;;;;;;;7.82;62.47;101334.88;5007992;28;102995;-48
2022/01/26 11:46:57;;;;;;;;;;;;;;;7.84;62.99;101316.53;5011014;28;103484;-50
2022/01/26 11:49:24;;;;;;;;;;;;;;;7.85;63.01;101310.03;5010488;27;104036;-47
2022/01/26 11:51:55;;;;;;;;;;;;;;;7.87;62.15;101315.22;5010977;28;102474;-50
2022/01/26 11:54:24;;;;;;;;;;;;;;;7.86;62.50;101311.69;5006649;27;102676;-48
2022/01/26 11:56:54;;;;;;;;;;;;;;;7.88;63.16;101314.97;5014105;27;102917;-47
2022/01/26 11:59:22;;;;;;;;;;;;;;;7.88;63.48;101314.97;5013025;28;103621;-46
2022/01/26 12:01:56;;;;;;;;;;;;;;;7.88;62.89;101319.56;5016363;28;105269;-47
2022/01/26 12:04:25;;;;;;;;;;;;;;;7.88;62.80;101304.13;5015029;27;102454;-48
2022/01/26 12:06:58;;;;;;;;;;;;;;;7.88;63.03;101304.13;5013693;27;102307;-48
2022/01/26 12:09:24;;;;;;;;;;;;;;;7.89;63.15;101305.78;5009469;27;103903;-50
2022/01/26 12:11:51;;;;;;;;;;;;;;;7.89;62.65;101303.06;5031420;27;102470;-51
2022/01/26 12:14:20;;;;;;;;;;;;;;;7.89;62.60;101294.13;5009777;28;102470;-47
2022/01/26 12:16:50;;;;;;;;;;;;;;;7.90;62.64;101307.44;5013373;28;102281;-46
2022/01/26 12:38:06;;;;;;;;;;;;;;;7.91;63.24;101298.25;5016724;28;102198;-47
2022/01/26 12:43:31;;;;;;;;;;;;;;;7.90;63.11;101291.19;5012561;28;101972;-49
2022/01/26 12:45:58;;;;;;;;;;;;;;;7.91;63.17;101298.25;5031794;27;103675;-50
2022/01/26 12:48:24;;;;;;;;;;;;;;;7.91;62.84;101309.09;5015789;27;103263;-50
2022/01/26 12:50:50;;;;;;;;;;;;;;;7.90;63.44;101302.03;5027821;27;104104;-47
2022/01/26 12:53:23;;;;;;;;;;;;;;;7.92;62.38;101307.19;5020118;27;102328;-48
2022/01/26 12:55:53;;;;;;;;;;;;;;;7.91;63.10;101298.25;5012723;28;105697;-49
2022/01/26 12:58:23;;;;;;;;;;;;;;;7.92;62.61;101313.44;5012821;28;102192;-49
2022/01/26 13:00:49;;;;;;;;;;;;;;;7.90;63.24;101302.03;5012047;28;104566;-47
2022/01/26 13:03:16;;;;;;;;;;;;;;;7.92;62.56;101309.91;5017013;27;102673;-47
2022/01/26 13:05:42;;;;;;;;;;;;;;;7.92;63.56;101316.13;5001121;28;102836;-47
2022/01/26 13:08:10;;;;;;;;;;;;;;;7.92;63.14;101318.84;5012249;27;102219;-50
2022/01/26 13:10:40;;;;;;;;;;;;;;;7.91;63.10;101314.50;5004436;28;104430;-47
2022/01/26 13:13:10;;;;;;;;;;;;;;;7.91;62.61;101314.50;5005467;27;103445;-49
2022/01/26 13:15:46;;;;;;;;;;;;;;;7.91;62.96;101317.22;5016192;27;102822;-48
2022/01/26 13:18:20;;;;;;;;;;;;;;;7.91;62.33;101319.91;5011801;28;102782;-48
2022/01/26 13:21:12;;;;;;;;;;;;;;;7.90;63.14;101315.56;5006079;28;104336;-47
2022/01/26 13:23:49;;;;;;;;;;;;;;;7.91;62.65;101319.91;5009790;28;102278;-51
2022/01/26 13:26:34;;;;;;;;;;;;;;;7.91;62.99;101314.50;5009466;28;102219;-48
2022/01/26 13:29:22;;;;;;;;;;;;;;;7.91;62.69;101309.09;5013918;27;102668;-49
2022/01/26 13:38:10;;;;;;;;;;;;;;;7.92;63.48;101316.13;5010562;27;103727;-50
2022/01/26 13:53:23;;;;;;;;;;;;;;;7.92;63.32;101304.47;5015529;28;103822;-47
2022/01/26 13:56:04;;;;;;;;;;;;;;;7.92;62.42;101310.72;5006117;28;102158;-50
2022/01/26 14:01:16;;;;;;;;;;;;;;;7.91;62.66;101313.69;5011335;28;102636;-48
2022/01/26 14:03:45;;;;;;;;;;;;;;;7.91;63.64;101311.78;5006022;28;103876;-48
2022/01/26 14:06:11;;;;;;;;;;;;;;;7.91;62.84;101317.22;5013501;27;102561;-49
2022/01/26 14:08:37;;;;;;;;;;;;;;;7.91;63.28;101317.22;5016802;27;102489;-48
2022/01/26 14:11:03;;;;;;;;;;;;;;;7.92;63.39;101324.28;5021695;27;102250;-46
2022/01/26 14:13:29;;;;;;;;;;;;;;;7.91;63.32;101328.06;5008504;28;103890;-50
2022/01/26 14:15:59;;;;;;;;;;;;;;;7.91;62.43;101322.63;5013348;27;102150;-50
2022/01/26 14:23:56;;;;;;;;;;;;;;;7.91;63.36;101333.47;5018527;27;103663;-48
2022/01/26 14:26:25;;;;;;;;;;;;;;;7.92;63.22;101326.97;5010368;27;102152;-46
2022/01/26 14:28:51;;;;;;;;;;;;;;;7.92;63.31;101331.59;5013176;28;102393;-47
2022/01/26 14:33:57;;;;;;;;;;;;;;;7.92;63.35;101335.13;5016405;27;103934;-49
2022/01/26 14:53:44;;;;;;;;;;;;;;;7.91;62.84;101341.59;5016505;27;102348;-49
2022/01/26 14:55:54;;;;;;;;;;;;;;;7.90;62.86;101339.97;5005166;28;103632;-47
2022/01/26 15:08:41;;;;;;;;;;;;;;;7.91;63.06;101336.19;5002685;28;102667;-49
2022/01/26 15:43:48;;;;;;;;;;;;;;;7.91;62.96;101366.00;5020468;27;102602;-50
2022/01/26 15:58:09;;;;;;;;;;;;;;;7.92;63.54;101373.06;5007515;27;102585;-47
2022/01/26 16:06:19;;;;;;;;;;;;;;;7.91;63.63;101379.56;5000201;27;102372;-46
2022/01/26 16:17:24;;;;;;;;;;;;;;;7.92;63.15;101391.22;5017219;27;102559;-50
2022/01/26 16:39:19;;;;;;;;;;;;;;;7.95;63.45;101407.81;5015267;28;102245;-49
2022/01/26 18:33:15;;;;;;;;;;;;;;;7.95;63.57;101510.81;5011772;28;107386;-49
2022/01/26 18:46:52;;;;;;;;;;;;;;;7.93;63.83;101521.09;5007388;28;102630;-50
2022/01/26 18:51:52;;;;;;;;;;;;;;;7.93;63.80;101529.22;4998105;28;102166;-48
2022/01/26 18:54:19;;;;;;;;;;;;;;;7.93;63.84;101531.94;4992596;28;103906;-48
2022/01/26 18:56:46;;;;;;;;;;;;;;;7.92;63.38;101522.13;4994833;28;102713;-49
2022/01/26 18:59:13;;;;;;;;;;;;;;;7.93;64.13;101544.63;4995478;28;102201;-49
2022/01/26 19:01:39;;;;;;;;;;;;;;;7.93;63.42;101544.63;5009165;28;102512;-49
2022/01/26 19:04:06;;;;;;;;;;;;;;;7.93;63.82;101544.63;4988289;28;103991;-49
2022/01/26 19:06:33;;;;;;;;;;;;;;;7.93;63.41;101544.63;4991027;28;102449;-50
2022/01/26 19:09:00;;;;;;;;;;;;;;;7.93;63.88;101545.47;4989389;28;104113;-51
2022/01/26 19:11:26;;;;;;;;;;;;;;;7.93;63.72;101542.78;4991385;28;102869;-48
2022/01/26 19:13:52;;;;;;;;;;;;;;;7.93;63.93;101556.31;4986193;28;104052;-48
2022/01/26 19:26:56;;;;;;;;;;;;;;;7.95;63.93;101548.75;4983043;28;102134;-49
2022/01/26 19:29:42;;;;;;;;;;;;;;;7.95;63.34;101551.47;4984734;28;102611;-48
2022/01/26 19:45:55;;;;;;;;;;;;;;;7.97;63.59;101558.53;4989559;28;103515;-49
2022/01/26 19:50:54;;;;;;;;;;;;;;;7.95;63.71;101565.03;5013025;28;102061;-49